Time;durP1;ratioP1;P1;durP2;ratioP2;P2;SDS_P1;SDS_P2;PMS_P1;PMS_P2;Temp;Humidity;BMP_temperature;BMP_pressure;BME280_temperature;BME280_humidity;BME280_pressure;Samples;Min_cycle;Max_cycle;Signal;HPM_P1;HPM_P2
2024/04/20 00:00:06;;;;;;;12.48;2.55;;;;;;;-146.27;76.52;44923.53;5450062;26;20001;-68
2024/04/20 00:02:31;;;;;;;12.32;2.65;;;;;;;-146.27;76.28;44931.50;5468402;26;20007;-66
2024/04/20 00:04:57;;;;;;;17.00;2.70;;;;;;;-146.27;75.65;44963.34;5447929;26;20028;-68
2024/04/20 00:07:22;;;;;;;13.57;2.38;;;;;;;-146.27;75.84;44985.22;5452329;26;20006;-66
2024/04/20 00:09:48;;;;;;;7.38;1.65;;;;;;;-146.27;74.85;45025.03;5451007;26;20027;-67
2024/04/20 00:12:15;;;;;;;18.33;2.42;;;;;;;-146.27;74.37;45058.88;5453071;26;20006;-67
2024/04/20 00:14:40;;;;;;;14.75;2.38;;;;;;;-146.27;74.84;45011.09;5465935;26;20008;-67
2024/04/20 00:17:05;;;;;;;9.98;1.70;;;;;;;-146.27;73.99;45062.84;5457251;26;20005;-69
2024/04/20 00:19:31;;;;;;;11.25;1.98;;;;;;;-146.27;75.11;45031.00;5499897;25;20007;-67
2024/04/20 00:21:57;;;;;;;18.20;2.67;;;;;;;-146.27;74.69;45038.97;5459489;26;19994;-67
2024/04/20 00:24:23;;;;;;;10.57;1.65;;;;;;;-146.27;74.55;45015.09;5467746;25;20327;-67
2024/04/20 00:26:48;;;;;;;17.02;2.70;;;;;;;-146.27;74.82;45011.09;5463960;26;20020;-67
2024/04/20 00:29:13;;;;;;;21.13;2.45;;;;;;;-146.27;74.00;45031.00;5477861;26;20463;-67
2024/04/20 00:31:39;;;;;;;13.70;2.30;;;;;;;-146.27;74.19;45042.94;5465841;26;20002;-68
2024/04/20 00:34:04;;;;;;;21.55;2.92;;;;;;;-146.27;73.70;45054.88;5471476;26;20442;-66
2024/04/20 00:36:29;;;;;;;9.68;2.22;;;;;;;-146.27;74.14;45033.00;5477732;26;20450;-68
2024/04/20 00:38:55;;;;;;;17.83;2.35;;;;;;;-146.27;73.08;45050.91;5474716;26;19999;-68
2024/04/20 00:41:20;;;;;;;15.82;2.35;;;;;;;-146.27;72.68;45082.75;5466709;26;20327;-68
2024/04/20 00:43:45;;;;;;;9.25;1.80;;;;;;;-146.27;72.14;45146.44;5448942;26;19999;-67
2024/04/20 00:46:11;;;;;;;19.45;2.45;;;;;;;-146.27;71.22;45182.25;5459090;25;20010;-68
2024/04/20 00:48:37;;;;;;;20.05;2.63;;;;;;;-146.27;69.48;45289.72;5447473;26;19994;-67
2024/04/20 00:51:03;;;;;;;16.20;3.47;;;;;;;-146.27;69.02;45289.72;5472681;26;20515;-68
2024/04/20 00:53:31;;;;;;;25.00;2.97;;;;;;;-146.27;68.99;45269.81;5462940;26;19993;-67
2024/04/20 00:55:57;;;;;;;14.93;2.17;;;;;;;-146.27;68.58;45337.47;5463070;26;20521;-66
2024/04/20 00:58:23;;;;;;;12.38;1.50;;;;;;;-146.27;69.60;45305.63;5470985;26;20003;-67
2024/04/20 01:00:48;;;;;;;9.77;2.03;;;;;;;-146.27;70.60;45277.78;5449838;26;20435;-67
2024/04/20 01:03:14;;;;;;;20.45;2.47;;;;;;;-146.27;71.10;45253.91;5474343;26;20434;-66
2024/04/20 01:05:39;;;;;;;19.50;2.53;;;;;;;-146.27;70.65;45239.97;5447870;26;19999;-68
2024/04/20 01:08:05;;;;;;;13.40;3.03;;;;;;;-146.27;73.22;45210.09;5474360;26;20008;-69
2024/04/20 01:10:31;;;;;;;21.05;2.58;;;;;;;-146.27;71.70;45204.13;5453376;25;20066;-68
2024/04/20 01:13:07;;;;;;;23.33;3.20;;;;;;;-146.27;71.04;45234.00;5471247;26;19999;-70
2024/04/20 01:15:33;;;;;;;18.00;3.08;;;;;;;-146.27;71.08;45255.88;5446559;26;20002;-69
2024/04/20 01:17:59;;;;;;;10.07;1.50;;;;;;;-146.27;70.71;45309.63;5454271;26;19994;-70
2024/04/20 01:20:25;;;;;;;12.05;1.80;;;;;;;-146.27;69.45;45331.50;5472795;26;19998;-70
2024/04/20 01:22:51;;;;;;;7.05;1.55;;;;;;;-146.27;67.79;45385.25;5447511;26;20003;-69
2024/04/20 01:25:17;;;;;;;9.15;1.50;;;;;;;-146.27;64.91;45540.50;5449653;26;20002;-68
2024/04/20 01:27:44;;;;;;;17.55;1.67;;;;;;;-146.27;63.96;45600.19;5449738;26;19995;-70
2024/04/20 01:30:14;;;;;;;14.68;1.63;;;;;;;-146.27;64.51;45554.41;5450194;26;19991;-68
2024/04/20 01:32:39;;;;;;;15.13;1.48;;;;;;;-146.27;65.06;45546.47;5449028;26;19999;-67
2024/04/20 01:35:05;;;;;;;14.65;1.92;;;;;;;-146.27;64.73;45594.22;5457033;26;20109;-69
2024/04/20 01:37:30;;;;;;;10.13;1.45;;;;;;;-146.27;65.26;45552.44;5458024;26;20003;-70
2024/04/20 01:39:55;;;;;;;15.93;1.90;;;;;;;-146.27;64.12;45606.16;5473354;26;20075;-71
2024/04/20 01:42:21;;;;;;;11.25;1.52;;;;;;;-146.27;64.46;45590.25;5450080;26;20356;-69
2024/04/20 01:44:46;;;;;;;14.45;2.10;;;;;;;-146.27;64.43;45576.31;5458180;26;20042;-69
2024/04/20 01:47:12;;;;;;;10.13;1.35;;;;;;;-146.27;65.28;45560.38;5459406;26;20002;-70
2024/04/20 01:49:37;;;;;;;11.50;1.70;;;;;;;-146.27;65.39;45588.25;5458644;26;19998;-70
2024/04/20 01:52:03;;;;;;;11.90;1.90;;;;;;;-146.27;65.76;45572.34;5483221;26;20006;-70
2024/04/20 01:54:28;;;;;;;7.15;2.03;;;;;;;-146.27;65.17;45592.22;5469103;26;20450;-69
2024/04/20 01:56:53;;;;;;;14.40;2.75;;;;;;;-146.27;66.25;45524.56;5468838;26;19990;-69
2024/04/20 01:59:19;;;;;;;12.18;1.83;;;;;;;-146.27;68.29;45528.53;5455544;26;20013;-69
2024/04/20 02:01:46;;;;;;;15.20;1.95;;;;;;;-146.27;68.55;45470.81;5471358;26;19998;-70
2024/04/20 02:04:12;;;;;;;14.82;1.75;;;;;;;-146.27;69.03;45431.03;5468640;26;20323;-69
2024/04/20 02:06:37;;;;;;;15.20;2.67;;;;;;;-146.27;70.05;45425.06;5461497;26;19995;-69
2024/04/20 02:09:02;;;;;;;14.10;1.90;;;;;;;-146.27;71.43;45419.09;5465623;26;20002;-70
2024/04/20 02:11:28;;;;;;;9.13;1.70;;;;;;;-146.27;72.85;45361.38;5457193;26;19998;-68
2024/04/20 02:13:53;;;;;;;13.13;1.60;;;;;;;-146.27;73.40;45401.16;5456656;26;20009;-70
2024/04/20 02:16:18;;;;;;;8.82;1.45;;;;;;;-146.27;74.78;45289.72;5459010;26;20424;-69
2024/04/20 02:18:44;;;;;;;9.50;1.33;;;;;;;-146.27;76.25;45202.16;5450218;26;19995;-69
2024/04/20 02:21:12;;;;;;;8.88;1.75;;;;;;;-146.27;76.92;45186.22;5457914;26;20105;-68
2024/04/20 02:23:42;;;;;;;10.52;1.73;;;;;;;-146.27;76.18;45134.50;5456092;26;20041;-71
2024/04/20 02:26:07;;;;;;;7.78;1.55;;;;;;;-146.27;75.07;45230.00;5455093;26;20123;-70
2024/04/20 02:28:33;;;;;;;9.05;1.50;;;;;;;-146.27;73.95;45261.84;5452650;26;20060;-70
2024/04/20 02:30:58;;;;;;;6.82;1.30;;;;;;;-146.27;73.05;45259.88;5454365;26;19994;-70
2024/04/20 02:33:23;;;;;;;7.00;1.08;;;;;;;-146.27;71.76;45305.63;5452016;26;20007;-72
2024/04/20 02:35:49;;;;;;;9.93;1.10;;;;;;;-146.27;71.36;45329.53;5457793;26;20002;-70
2024/04/20 02:38:14;;;;;;;8.32;1.20;;;;;;;-146.27;70.59;45343.44;5455733;26;20062;-69
2024/04/20 02:40:39;;;;;;;11.05;1.80;;;;;;;-146.27;70.38;45381.25;5449542;26;20002;-70
2024/04/20 02:43:05;;;;;;;8.07;1.40;;;;;;;-146.27;69.98;45381.25;5449750;26;20126;-70
2024/04/20 02:45:30;;;;;;;8.90;1.40;;;;;;;-146.27;69.30;45411.13;5453090;26;20027;-69
2024/04/20 02:47:56;;;;;;;11.00;1.90;;;;;;;-146.27;68.86;45460.88;5461856;26;19994;-69
2024/04/20 02:50:21;;;;;;;15.32;1.52;;;;;;;-146.27;68.48;45437.00;5459539;26;20039;-68
2024/04/20 02:52:47;;;;;;;10.55;1.08;;;;;;;-146.27;68.41;45462.88;5461434;26;19999;-69
2024/04/20 02:55:13;;;;;;;13.43;1.88;;;;;;;-146.27;68.88;45450.91;5466055;26;20454;-70
2024/04/20 02:57:38;;;;;;;14.18;2.60;;;;;;;-146.27;68.80;45423.06;5450142;26;20063;-68
2024/04/20 03:00:04;;;;;;;9.77;1.77;;;;;;;-146.27;68.69;45427.03;5455016;26;19999;-70
2024/04/20 03:02:29;;;;;;;10.25;1.73;;;;;;;-146.27;69.43;45415.09;5459599;26;20018;-70
2024/04/20 03:04:55;;;;;;;16.33;2.53;;;;;;;-146.27;70.20;45385.25;5470131;26;19998;-70
2024/04/20 03:07:23;;;;;;;22.30;2.17;;;;;;;-146.27;71.86;45343.44;5471485;26;19994;-70
2024/04/20 03:09:49;;;;;;;15.63;2.97;;;;;;;-146.27;72.38;45287.72;5450819;26;20003;-70
2024/04/20 03:12:15;;;;;;;13.88;2.20;;;;;;;-146.27;71.16;45321.56;5454638;26;20005;-71
2024/04/20 03:14:41;;;;;;;12.88;1.73;;;;;;;-146.27;71.45;45305.63;5449985;26;20049;-70
2024/04/20 03:17:07;;;;;;;14.90;2.60;;;;;;;-146.27;71.59;45297.69;5463144;26;20022;-68
2024/04/20 03:19:32;;;;;;;12.05;1.83;;;;;;;-146.27;72.58;45305.63;5470542;26;20003;-70
2024/04/20 03:21:58;;;;;;;6.57;1.50;;;;;;;-146.27;72.10;45327.53;5467061;26;19998;-68
2024/04/20 03:24:23;;;;;;;7.07;1.70;;;;;;;-146.27;71.14;45361.38;5451019;26;20069;-70
2024/04/20 03:26:48;;;;;;;10.75;1.48;;;;;;;-146.27;71.42;45351.41;5457985;26;19995;-70
2024/04/20 03:29:14;;;;;;;10.70;1.40;;;;;;;-146.27;72.10;45295.69;5473893;26;19998;-71
2024/04/20 03:31:39;;;;;;;12.85;2.05;;;;;;;-146.27;71.94;45325.53;5455568;26;19998;-70
2024/04/20 03:34:04;;;;;;;16.20;2.08;;;;;;;-146.27;71.30;45341.47;5448236;26;20002;-69
2024/04/20 03:36:30;;;;;;;9.65;1.80;;;;;;;-146.27;71.62;45305.63;5456297;26;19998;-70
2024/04/20 03:38:55;;;;;;;10.98;1.80;;;;;;;-146.27;72.62;45281.75;5464989;26;20006;-70
2024/04/20 03:41:21;;;;;;;13.13;1.48;;;;;;;-146.27;72.16;45291.72;5453767;26;20064;-70
2024/04/20 03:43:47;;;;;;;14.13;1.98;;;;;;;-146.27;72.76;45297.69;5460072;26;19999;-70
2024/04/20 03:46:12;;;;;;;13.57;1.52;;;;;;;-146.27;72.02;45271.81;5463493;26;19994;-69
2024/04/20 03:48:38;;;;;;;11.13;1.50;;;;;;;-146.27;71.72;45271.81;5462085;26;20014;-70
2024/04/20 03:51:03;;;;;;;14.80;1.25;;;;;;;-146.27;72.71;45235.97;5455665;26;19998;-69
2024/04/20 03:53:29;;;;;;;10.88;1.83;;;;;;;-146.27;72.58;45214.09;5452277;26;19999;-68
2024/04/20 03:55:55;;;;;;;12.73;1.20;;;;;;;-146.27;71.80;45259.88;5463014;26;19990;-70
2024/04/20 03:58:20;;;;;;;7.47;1.63;;;;;;;-146.27;70.90;45305.63;5467454;26;20031;-70
2024/04/20 04:00:46;;;;;;;9.10;1.67;;;;;;;-146.27;71.64;45281.75;5448063;26;19991;-69
2024/04/20 04:03:26;;;;;;;7.18;1.52;;;;;;;-146.27;71.77;45285.75;5447850;26;20007;-69
2024/04/20 04:05:52;;;;;;;14.23;2.00;;;;;;;-146.27;72.36;45249.91;5472490;26;19995;-70
2024/04/20 04:08:17;;;;;;;8.00;1.30;;;;;;;-146.27;72.09;45226.03;5469501;26;19994;-68
2024/04/20 04:10:44;;;;;;;11.68;1.88;;;;;;;-146.27;72.49;45273.78;5463414;26;20456;-68
2024/04/20 04:13:12;;;;;;;8.98;1.00;;;;;;;-146.27;71.66;45279.75;5469485;26;20225;-70
2024/04/20 04:15:37;;;;;;;9.23;1.65;;;;;;;-146.27;71.17;45349.41;5458795;26;19999;-69
2024/04/20 04:18:03;;;;;;;8.35;1.30;;;;;;;-146.27;70.40;45307.63;5470369;26;20503;-69
2024/04/20 04:20:28;;;;;;;10.82;1.45;;;;;;;-146.27;70.44;45393.22;5460249;26;19998;-70
2024/04/20 04:22:54;;;;;;;7.57;0.90;;;;;;;-146.27;70.06;45405.16;5470615;26;19995;-69
2024/04/20 04:25:19;;;;;;;11.95;1.55;;;;;;;-146.27;70.02;45442.97;5460454;26;20148;-70
2024/04/20 04:27:45;;;;;;;9.35;1.00;;;;;;;-146.27;69.27;45484.75;5473141;26;20407;-69
2024/04/20 04:30:10;;;;;;;7.78;1.25;;;;;;;-146.27;69.81;45452.91;5460232;26;20001;-68
2024/04/20 04:32:36;;;;;;;13.40;1.10;;;;;;;-146.27;69.79;45448.94;5473834;26;20088;-69
2024/04/20 04:35:01;;;;;;;7.57;1.10;;;;;;;-146.27;69.57;45464.84;5462651;26;19998;-71
2024/04/20 04:37:28;;;;;;;9.32;1.00;;;;;;;-146.27;69.41;45448.94;5463496;26;20023;-69
2024/04/20 04:39:55;;;;;;;14.65;2.17;;;;;;;-146.27;69.68;45464.84;5458202;26;20815;-69
2024/04/20 04:42:21;;;;;;;8.25;0.77;;;;;;;-146.27;70.43;45437.00;5469354;26;20066;-68
2024/04/20 04:44:46;;;;;;;12.02;2.75;;;;;;;-146.27;70.11;45442.97;5469951;26;19999;-68
2024/04/20 04:47:11;;;;;;;7.00;2.03;;;;;;;-146.27;70.63;45484.75;5473874;26;20063;-67
2024/04/20 04:49:37;;;;;;;8.35;1.40;;;;;;;-146.27;70.73;45480.78;5477006;26;20331;-68
2024/04/20 04:52:02;;;;;;;9.70;1.50;;;;;;;-146.27;70.26;45484.75;5463225;26;19998;-67
2024/04/20 04:54:27;;;;;;;8.45;1.23;;;;;;;-146.27;72.02;45454.91;5447972;26;19995;-67
2024/04/20 04:56:54;;;;;;;15.05;2.20;;;;;;;-146.27;73.27;45437.00;5461756;26;19994;-67
2024/04/20 04:59:21;;;;;;;13.93;1.63;;;;;;;-146.27;74.97;45468.84;5455535;26;20014;-68
2024/04/20 05:01:47;;;;;;;5.90;1.08;;;;;;;-146.27;75.20;45492.72;5462564;26;19994;-68
2024/04/20 05:04:13;;;;;;;2.92;0.70;;;;;;;-146.27;75.65;45508.63;5473568;26;20010;-68
2024/04/20 05:06:40;;;;;;;8.63;1.23;;;;;;;-146.27;74.60;45552.44;5472111;26;20397;-66
2024/04/20 05:09:06;;;;;;;9.73;1.02;;;;;;;-146.27;74.85;45604.19;5459372;26;19995;-68
2024/04/20 05:11:31;;;;;;;8.55;0.98;;;;;;;-146.27;75.15;45628.06;5451421;26;20007;-68
2024/04/20 05:13:56;;;;;;;3.72;0.93;;;;;;;-146.27;75.17;45679.81;5461846;26;20478;-67
2024/04/20 05:16:22;;;;;;;11.75;1.35;;;;;;;-146.27;75.34;45661.91;5451426;26;20010;-68
2024/04/20 05:18:47;;;;;;;10.45;1.23;;;;;;;-146.27;76.55;45653.94;5467152;26;20032;-68
2024/04/20 05:21:12;;;;;;;5.50;1.40;;;;;;;-146.27;75.63;45643.97;5467730;26;19994;-68
2024/04/20 05:23:38;;;;;;;6.80;0.90;;;;;;;-146.27;75.43;45675.81;5476441;26;19994;-68
2024/04/20 05:26:03;;;;;;;4.70;0.80;;;;;;;-146.27;76.30;45628.06;5451320;26;20105;-67
2024/04/20 05:28:29;;;;;;;3.40;1.05;;;;;;;-146.27;77.44;45588.25;5450995;26;20382;-68
2024/04/20 05:30:54;;;;;;;13.25;1.63;;;;;;;-146.27;77.56;45576.31;5462827;26;20346;-68
2024/04/20 05:33:19;;;;;;;7.80;1.20;;;;;;;-146.27;76.02;45675.81;5453909;26;20064;-67
2024/04/20 05:35:45;;;;;;;11.40;1.25;;;;;;;-146.27;76.73;45624.06;5472202;26;20040;-69
2024/04/20 05:38:10;;;;;;;11.43;1.50;;;;;;;-146.27;76.44;45624.06;5457589;26;20002;-68
2024/04/20 05:40:37;;;;;;;11.90;1.33;;;;;;;-146.27;76.32;45632.03;5454032;26;20503;-69
2024/04/20 05:43:02;;;;;;;4.18;0.73;;;;;;;-146.27;75.84;45612.13;5462764;26;20744;-68
2024/04/20 05:45:28;;;;;;;7.75;1.33;;;;;;;-146.27;74.79;45671.84;5453837;26;20017;-68
2024/04/20 05:47:54;;;;;;;10.85;1.10;;;;;;;-146.27;73.97;45691.75;5457083;26;20050;-69
2024/04/20 05:50:20;;;;;;;10.68;1.20;;;;;;;-146.27;72.95;45703.69;5477292;26;20442;-67
2024/04/20 05:52:46;;;;;;;11.85;1.95;;;;;;;-146.27;72.34;45769.38;5452518;26;19995;-68
2024/04/20 05:55:11;;;;;;;6.07;1.58;;;;;;;-146.27;72.08;45771.38;5470969;26;20468;-68
2024/04/20 05:57:37;;;;;;;12.35;1.63;;;;;;;-146.27;71.89;45763.41;5454367;26;20514;-68
2024/04/20 06:00:03;;;;;;;11.50;2.30;;;;;;;-146.27;71.11;45775.34;5463387;26;20010;-69
2024/04/20 06:02:28;;;;;;;10.27;1.70;;;;;;;-146.27;71.00;45799.22;5451478;26;20410;-69
2024/04/20 06:04:56;;;;;;;9.95;2.00;;;;;;;-146.27;71.99;45801.22;5458783;26;20006;-68
2024/04/20 06:07:21;;;;;;;13.15;1.75;;;;;;;-146.27;70.67;45799.22;5470987;26;19998;-69
2024/04/20 06:09:47;;;;;;;10.25;1.63;;;;;;;-146.27;70.09;45841.03;5467543;26;19994;-68
2024/04/20 06:12:12;;;;;;;9.18;1.73;;;;;;;-146.27;71.88;45835.06;5459671;26;20014;-69
2024/04/20 06:14:38;;;;;;;11.40;1.65;;;;;;;-146.27;73.33;45837.06;5464204;26;20401;-68
2024/04/20 06:17:03;;;;;;;9.20;1.67;;;;;;;-146.27;72.38;45815.16;5459178;26;19995;-67
2024/04/20 06:19:29;;;;;;;11.68;1.65;;;;;;;-146.27;73.01;45775.34;5451449;26;20005;-68
2024/04/20 06:21:54;;;;;;;11.23;3.22;;;;;;;-146.27;71.96;45785.31;5465560;26;19998;-68
2024/04/20 06:24:20;;;;;;;16.42;1.85;;;;;;;-146.27;70.94;45809.19;5472751;26;19999;-68
2024/04/20 06:26:45;;;;;;;9.98;1.38;;;;;;;-146.27;71.28;45759.44;5457745;26;19999;-69
2024/04/20 06:29:11;;;;;;;13.38;1.48;;;;;;;-146.27;69.99;45781.31;5453835;26;20010;-69
2024/04/20 06:31:37;;;;;;;17.98;2.75;;;;;;;-146.27;70.55;45775.34;5468716;26;19994;-70
2024/04/20 06:34:03;;;;;;;14.60;2.35;;;;;;;-146.27;70.49;45707.69;5456379;26;20351;-68
2024/04/20 06:36:29;;;;;;;11.15;1.77;;;;;;;-146.27;69.54;45747.47;5461474;26;19994;-67
2024/04/20 06:38:55;;;;;;;11.27;2.13;;;;;;;-146.27;68.80;45795.25;5469652;26;20357;-67
2024/04/20 06:41:20;;;;;;;15.80;1.92;;;;;;;-146.27;69.65;45757.44;5485305;26;20009;-67
2024/04/20 06:43:46;;;;;;;12.68;1.98;;;;;;;-146.27;69.52;45789.28;5459365;26;20009;-71
2024/04/20 06:46:11;;;;;;;12.73;2.20;;;;;;;-146.27;67.90;45797.25;5457906;26;20439;-67
2024/04/20 06:48:36;;;;;;;17.55;2.40;;;;;;;-146.27;65.68;45890.78;5455555;26;19998;-69
2024/04/20 06:51:03;;;;;;;11.15;1.88;;;;;;;-146.27;66.47;45924.63;5458195;26;19995;-67
2024/04/20 06:53:28;;;;;;;11.68;1.90;;;;;;;-146.27;67.17;45910.69;5459994;26;20444;-67
2024/04/20 06:56:00;;;;;;;17.08;2.15;;;;;;;-146.27;65.01;45962.44;5455306;26;20036;-68
2024/04/20 06:58:26;;;;;;;11.82;1.50;;;;;;;-146.27;66.16;45990.31;5462630;26;20039;-69
2024/04/20 07:00:52;;;;;;;13.23;1.85;;;;;;;-146.27;66.88;45990.31;5453903;26;20009;-68
2024/04/20 07:03:17;;;;;;;9.57;1.73;;;;;;;-146.27;65.73;46002.25;5467037;26;20423;-67
2024/04/20 07:05:55;;;;;;;10.27;2.38;;;;;;;-146.27;67.57;46073.91;5472004;26;20070;-68
2024/04/20 07:08:22;;;;;;;12.90;1.92;;;;;;;-146.27;65.92;46038.09;5449711;26;19995;-68
2024/04/20 07:11:14;;;;;;;12.70;2.13;;;;;;;-146.27;62.59;46097.81;5449676;26;20423;-67
2024/04/20 07:13:40;;;;;;;10.30;1.80;;;;;;;-146.27;61.09;46115.72;5445902;26;20007;-67
2024/04/20 07:16:07;;;;;;;8.85;1.25;;;;;;;-146.27;62.02;46087.84;5475855;26;19999;-69
2024/04/20 07:18:33;;;;;;;10.35;1.58;;;;;;;-146.27;60.70;46113.72;5485079;26;19990;-68
2024/04/20 07:21:04;;;;;;;12.52;1.58;;;;;;;-146.27;61.82;46097.81;5480229;26;20005;-68
2024/04/20 07:23:29;;;;;;;12.05;1.73;;;;;;;-146.27;62.01;46145.59;5480566;26;20049;-69
2024/04/20 07:25:58;;;;;;;23.45;3.22;;;;;;;-146.27;63.74;46085.88;5446901;26;19999;-68
2024/04/20 07:28:23;;;;;;;14.85;2.13;;;;;;;-146.27;64.40;46028.13;5464533;26;19998;-69
2024/04/20 07:30:49;;;;;;;14.88;1.52;;;;;;;-146.27;65.51;45966.44;5453393;26;20009;-69
2024/04/20 07:33:15;;;;;;;7.60;1.48;;;;;;;-146.27;65.78;45958.47;5463104;26;20002;-69
2024/04/20 07:35:40;;;;;;;11.63;2.30;;;;;;;-146.27;65.50;46002.25;5466565;26;20453;-68
2024/04/20 07:38:06;;;;;;;11.48;1.67;;;;;;;-146.27;65.83;45972.41;5467418;26;20010;-68
2024/04/20 07:40:31;;;;;;;6.78;1.55;;;;;;;-146.27;64.20;46022.16;5463897;26;20013;-67
2024/04/20 07:42:56;;;;;;;15.98;1.95;;;;;;;-146.27;64.51;45994.31;5485742;26;19994;-67
2024/04/20 07:45:21;;;;;;;9.80;1.73;;;;;;;-146.27;63.23;46002.25;5470359;26;20010;-68
2024/04/20 07:47:47;;;;;;;14.75;2.13;;;;;;;-146.27;59.45;46069.94;5453202;26;20031;-68
2024/04/20 07:50:14;;;;;;;17.38;2.00;;;;;;;-146.27;57.04;46137.63;5454883;26;20004;-66
2024/04/20 07:52:40;;;;;;;9.27;1.40;;;;;;;-146.27;56.38;46167.47;5456706;26;20334;-66
2024/04/20 07:55:05;;;;;;;18.50;2.53;;;;;;;-146.27;56.63;46185.41;5471860;26;20005;-67
2024/04/20 07:57:31;;;;;;;13.27;1.70;;;;;;;-146.27;57.53;46117.72;5475142;26;20320;-66
2024/04/20 07:59:56;;;;;;;18.05;2.17;;;;;;;-146.27;58.21;46143.59;5466873;26;19995;-66
2024/04/20 08:02:21;;;;;;;9.10;1.73;;;;;;;-146.27;59.32;46177.44;5465180;26;19995;-67
2024/04/20 08:04:47;;;;;;;13.30;1.83;;;;;;;-146.27;60.54;46121.69;5473824;26;20491;-67
2024/04/20 08:07:13;;;;;;;13.48;1.80;;;;;;;-146.27;58.14;46169.47;5470877;26;19991;-67
2024/04/20 08:09:39;;;;;;;6.53;1.50;;;;;;;-146.27;55.23;46253.06;5471023;26;20336;-67
2024/04/20 08:12:04;;;;;;;11.88;1.52;;;;;;;-146.27;53.10;46384.47;5463605;26;20003;-66
2024/04/20 08:14:30;;;;;;;12.02;1.30;;;;;;;-146.27;51.42;46487.97;5472745;26;20045;-68
2024/04/20 08:16:55;;;;;;;9.63;1.40;;;;;;;-146.27;52.72;46460.09;5467405;26;20006;-68
2024/04/20 08:19:21;;;;;;;18.48;1.77;;;;;;;-146.27;53.01;46438.22;5450333;26;20010;-67
2024/04/20 08:21:46;;;;;;;9.93;1.80;;;;;;;-146.27;51.90;46448.16;5459596;26;19995;-68
2024/04/20 08:24:12;;;;;;;10.88;1.20;;;;;;;-146.27;50.34;46499.94;5468702;26;19995;-68
2024/04/20 08:26:37;;;;;;;10.95;1.90;;;;;;;-146.27;50.33;46521.81;5484325;26;20375;-69
2024/04/20 08:29:02;;;;;;;12.20;1.55;;;;;;;-146.27;50.03;46525.81;5478661;26;19998;-68
2024/04/20 08:31:28;;;;;;;11.55;1.67;;;;;;;-146.27;50.55;46531.78;5448328;26;20005;-68
2024/04/20 08:33:53;;;;;;;8.48;1.63;;;;;;;-146.27;48.16;46543.72;5474721;26;19998;-68
2024/04/20 08:36:18;;;;;;;8.50;1.30;;;;;;;-146.27;51.35;46484.00;5451169;26;20026;-67
2024/04/20 08:38:44;;;;;;;7.70;1.75;;;;;;;-146.27;49.13;46539.75;5459349;26;20837;-66
2024/04/20 08:41:12;;;;;;;7.10;1.35;;;;;;;-146.27;47.97;46547.72;5459354;26;20526;-67
2024/04/20 08:43:39;;;;;;;10.90;1.65;;;;;;;-146.27;46.90;46573.59;5472679;26;20053;-68
2024/04/20 08:46:06;;;;;;;8.73;1.65;;;;;;;-146.27;48.07;46563.63;5477545;26;20013;-66
2024/04/20 08:48:32;;;;;;;18.83;2.22;;;;;;;-146.27;47.81;46611.41;5462105;26;19999;-66
2024/04/20 08:51:01;;;;;;;9.70;1.88;;;;;;;-146.27;48.42;46539.75;5475776;26;20005;-68
2024/04/20 08:53:30;;;;;;;16.52;2.17;;;;;;;-146.27;49.44;46555.66;5465274;26;19998;-66
2024/04/20 08:55:56;;;;;;;9.25;1.55;;;;;;;-146.27;49.14;46535.75;5460227;26;20002;-68
2024/04/20 08:58:22;;;;;;;12.73;1.58;;;;;;;-146.27;51.03;46557.66;5463948;26;19994;-67
2024/04/20 09:00:56;;;;;;;10.63;1.67;;;;;;;-146.27;49.17;46589.50;5470346;26;20073;-67
2024/04/20 09:03:22;;;;;;;7.50;1.45;;;;;;;-146.27;47.72;46679.09;5454064;26;20020;-66
2024/04/20 09:05:51;;;;;;;11.00;1.48;;;;;;;-146.27;47.89;46635.31;5460134;26;20010;-67
2024/04/20 09:08:18;;;;;;;7.18;2.40;;;;;;;-146.27;47.24;46589.50;5471074;26;20006;-68
2024/04/20 09:10:43;;;;;;;8.13;1.30;;;;;;;-146.27;48.76;46603.44;5480587;26;20046;-68
2024/04/20 09:13:11;;;;;;;8.95;1.27;;;;;;;-146.27;52.54;46523.81;5475553;26;20334;-67
2024/04/20 09:15:36;;;;;;;8.77;1.50;;;;;;;-146.27;51.25;46491.97;5471948;26;20413;-69
2024/04/20 09:18:02;;;;;;;11.85;1.80;;;;;;;-146.27;55.07;46480.03;5458459;26;20005;-68
2024/04/20 09:20:29;;;;;;;15.60;1.52;;;;;;;-146.27;54.78;46468.06;5458208;26;20451;-66
2024/04/20 09:23:04;;;;;;;7.40;1.40;;;;;;;-146.27;52.95;46521.81;5472705;26;20351;-66
2024/04/20 09:25:30;;;;;;;16.10;1.45;;;;;;;-146.27;52.84;46487.97;5462719;26;20006;-67
2024/04/20 09:27:56;;;;;;;8.13;1.15;;;;;;;-146.27;52.39;46487.97;5481979;26;20003;-67
2024/04/20 09:30:22;;;;;;;9.45;1.08;;;;;;;-146.27;50.75;46509.88;5473101;26;20454;-68
2024/04/20 09:32:48;;;;;;;15.75;1.85;;;;;;;-146.27;51.25;46527.78;5477154;26;19990;-66
2024/04/20 09:35:14;;;;;;;16.52;2.55;;;;;;;-146.27;51.43;46519.84;5471265;26;20435;-68
2024/04/20 09:37:39;;;;;;;10.30;1.48;;;;;;;-146.27;51.95;46531.78;5457650;26;20006;-67
2024/04/20 09:40:07;;;;;;;10.50;1.38;;;;;;;-146.27;50.79;46515.84;5471354;26;20063;-67
2024/04/20 09:42:32;;;;;;;9.85;1.50;;;;;;;-146.27;51.48;46497.94;5481669;26;20025;-66
2024/04/20 09:44:59;;;;;;;9.75;1.10;;;;;;;-146.27;49.24;46513.88;5456539;26;19991;-67
2024/04/20 09:47:26;;;;;;;10.27;1.20;;;;;;;-146.27;50.76;46468.06;5462116;26;20119;-68
2024/04/20 09:49:52;;;;;;;4.63;0.93;;;;;;;-146.27;48.82;46420.28;5478613;26;20026;-67
2024/04/20 09:52:22;;;;;;;6.90;1.27;;;;;;;-146.27;46.07;46499.94;5470557;26;20472;-67
2024/04/20 09:55:04;;;;;;;7.40;1.15;;;;;;;-146.27;45.50;46515.84;5455265;26;20078;-66
2024/04/20 09:57:33;;;;;;;3.20;0.73;;;;;;;-146.27;43.75;46617.38;5449821;26;19998;-66
2024/04/20 09:59:59;;;;;;;2.97;0.68;;;;;;;-146.27;43.66;46659.19;5450162;26;20768;-66
2024/04/20 10:02:26;;;;;;;3.53;0.82;;;;;;;-146.27;43.09;46691.03;5449393;26;20003;-67
2024/04/20 10:04:58;;;;;;;6.93;1.13;;;;;;;-146.27;43.77;46710.94;5465375;26;20040;-67
2024/04/20 10:07:30;;;;;;;4.50;0.80;;;;;;;-146.27;45.20;46691.03;5452377;26;20733;-66
2024/04/20 10:10:01;;;;;;;5.22;0.75;;;;;;;-146.27;43.41;46780.63;5450940;26;20009;-66
2024/04/20 10:12:31;;;;;;;3.75;0.90;;;;;;;-146.27;43.40;46812.50;5451797;26;20007;-66
2024/04/20 10:15:00;;;;;;;4.70;1.00;;;;;;;-146.27;44.59;46770.69;5449601;26;20003;-67
2024/04/20 10:17:26;;;;;;;5.75;0.80;;;;;;;-146.27;44.58;46808.50;5449874;26;19999;-66
2024/04/20 10:19:52;;;;;;;5.07;1.10;;;;;;;-146.27;45.25;46776.66;5449276;26;19998;-67
2024/04/20 10:22:21;;;;;;;7.13;1.67;;;;;;;-146.27;45.70;46760.72;5475595;26;20025;-67
2024/04/20 10:24:53;;;;;;;5.30;1.00;;;;;;;-146.27;45.02;46786.59;5484456;26;20002;-68
2024/04/20 10:27:26;;;;;;;8.38;1.27;;;;;;;-146.27;47.68;46738.81;5486849;26;20034;-67
2024/04/20 10:29:52;;;;;;;6.20;0.90;;;;;;;-146.27;47.26;46732.84;5467821;26;20006;-67
2024/04/20 10:32:23;;;;;;;8.32;1.55;;;;;;;-146.27;46.01;46706.97;5472622;26;19994;-68
2024/04/20 10:34:49;;;;;;;7.38;1.63;;;;;;;-146.27;45.57;46665.16;5483269;26;20001;-69
2024/04/20 10:37:24;;;;;;;9.60;1.23;;;;;;;-146.27;45.28;46661.19;5470886;26;20018;-68
2024/04/20 10:39:49;;;;;;;12.93;1.70;;;;;;;-146.27;46.30;46633.31;5458113;26;20040;-69
2024/04/20 10:42:22;;;;;;;7.03;1.60;;;;;;;-146.27;45.60;46615.41;5466343;26;19995;-68
2024/04/20 10:44:47;;;;;;;7.80;1.38;;;;;;;-146.27;43.47;46734.84;5452031;26;20006;-69
2024/04/20 10:47:20;;;;;;;11.02;1.40;;;;;;;-146.27;42.41;46718.91;5470188;26;19994;-68
2024/04/20 10:49:46;;;;;;;9.77;1.40;;;;;;;-146.27;43.78;46708.97;5456068;26;20002;-69
2024/04/20 10:52:17;;;;;;;10.40;1.60;;;;;;;-146.27;43.46;46641.28;5451440;26;19994;-68
2024/04/20 10:54:43;;;;;;;9.18;1.73;;;;;;;-146.27;46.61;46589.50;5468806;26;20013;-67
2024/04/20 10:57:10;;;;;;;7.63;1.63;;;;;;;-146.27;52.71;46470.06;5465871;26;20605;-67
2024/04/20 10:59:36;;;;;;;14.07;1.65;;;;;;;-146.27;57.10;46487.97;5458392;26;19995;-69
2024/04/20 11:02:01;;;;;;;8.45;1.88;;;;;;;-146.27;60.44;46440.19;5483324;26;19998;-69
2024/04/20 11:04:30;;;;;;;6.97;1.27;;;;;;;-146.27;57.39;46523.81;5463960;26;19991;-66
2024/04/20 11:07:02;;;;;;;10.65;1.58;;;;;;;-146.27;57.85;46495.94;5452947;26;20382;-67